createdAt,value
2022-10-22T00:00:09.590Z,57.38
2022-10-22T00:02:11.639Z,58.72
2022-10-22T00:04:13.362Z,57.13
2022-10-22T00:06:15.125Z,58.01
2022-10-22T00:08:16.732Z,58.11
2022-10-22T00:10:19.067Z,60.81
2022-10-22T00:12:21.047Z,59.57
2022-10-22T00:14:22.618Z,63.06
2022-10-22T00:16:24.269Z,59.31
2022-10-22T00:18:26.088Z,60.45
2022-10-22T00:20:27.697Z,58.33
2022-10-22T00:22:29.228Z,60.56
2022-10-22T00:24:31.094Z,59.27
2022-10-22T00:26:32.691Z,58.32
2022-10-22T00:28:34.292Z,58.33
2022-10-22T00:30:35.871Z,59.88
2022-10-22T00:32:37.563Z,59.46
2022-10-22T00:34:39.257Z,60.11
2022-10-22T00:36:40.870Z,60.63
2022-10-22T00:38:42.933Z,59.76
2022-10-22T00:40:44.669Z,58.96
2022-10-22T00:42:46.444Z,60.71
2022-10-22T00:45:17.071Z,60.44
2022-10-22T00:47:19.031Z,63.98
2022-10-22T00:49:20.876Z,62.81
2022-10-22T00:51:28.814Z,61.31
2022-10-22T00:53:36.576Z,65.33
2022-10-22T00:55:39.502Z,63.30
2022-10-22T00:57:41.654Z,62.65
2022-10-22T00:59:43.360Z,62.59
2022-10-22T01:01:45.288Z,61.52
2022-10-22T01:03:47.875Z,62.56
2022-10-22T01:05:57.297Z,61.51
2022-10-22T01:07:59.307Z,61.55
2022-10-22T01:10:15.960Z,61.67
2022-10-22T01:12:31.999Z,60.71
2022-10-22T01:14:42.230Z,61.97
2022-10-22T01:17:08.002Z,59.55
2022-10-22T01:19:15.559Z,58.90
2022-10-22T01:21:23.174Z,58.52
2022-10-22T01:23:33.378Z,58.73
2022-10-22T01:25:38.266Z,59.17
2022-10-22T01:28:18.558Z,60.09
2022-10-22T01:30:20.815Z,59.76
2022-10-22T01:32:28.022Z,60.32
2022-10-22T01:34:32.007Z,59.32
2022-10-22T01:36:35.815Z,60.94
2022-10-22T01:38:40.015Z,61.46
2022-10-22T01:40:42.800Z,59.99
2022-10-22T01:43:00.955Z,61.66
2022-10-22T01:45:02.545Z,59.68
2022-10-22T01:47:11.337Z,61.62
2022-10-22T01:49:32.730Z,61.95
2022-10-22T01:51:44.552Z,59.45
2022-10-22T01:54:01.204Z,58.01
2022-10-22T01:56:44.831Z,59.26
2022-10-22T01:58:56.533Z,59.42
2022-10-22T02:01:22.158Z,58.87
2022-10-22T02:03:32.279Z,56.94
2022-10-22T02:05:53.356Z,57.60
2022-10-22T02:08:01.888Z,57.14
2022-10-22T02:10:04.663Z,55.35
2022-10-22T02:12:08.403Z,56.51
2022-10-22T02:14:12.792Z,54.31
2022-10-22T02:16:32.555Z,53.44
2022-10-22T02:18:38.832Z,53.05
2022-10-22T02:20:42.464Z,53.59
2022-10-22T02:22:44.255Z,54.43
2022-10-22T02:24:46.451Z,53.81
2022-10-22T02:26:59.983Z,57.56
2022-10-22T02:29:20.144Z,60.92
2022-10-22T02:31:26.114Z,60.21
2022-10-22T02:33:31.745Z,60.06
2022-10-22T02:35:34.432Z,57.08
2022-10-22T02:37:37.014Z,56.19
2022-10-22T02:39:39.937Z,57.20
2022-10-22T02:41:42.660Z,57.54
2022-10-22T02:43:51.067Z,55.76
2022-10-22T02:45:54.718Z,56.55
2022-10-22T02:47:56.539Z,58.94
2022-10-22T02:49:58.186Z,56.69
2022-10-22T02:51:59.847Z,59.74
2022-10-22T02:54:01.848Z,59.89
2022-10-22T02:56:03.718Z,60.71
2022-10-22T02:58:05.274Z,57.12
2022-10-22T03:00:09.240Z,56.01
2022-10-22T03:02:10.936Z,57.47
2022-10-22T03:04:12.517Z,56.85
2022-10-22T03:06:14.182Z,55.92
2022-10-22T03:08:15.807Z,58.22
2022-10-22T03:10:17.488Z,57.61
2022-10-22T03:12:19.151Z,57.15
2022-10-22T03:14:20.781Z,56.85
2022-10-22T03:16:22.483Z,57.21
2022-10-22T03:18:24.482Z,57.96
2022-10-22T03:20:26.262Z,58.25
2022-10-22T03:22:31.945Z,58.20
2022-10-22T03:24:40.095Z,58.12
2022-10-22T03:26:43.459Z,56.04
2022-10-22T03:28:47.892Z,56.25
2022-10-22T03:30:49.493Z,56.74
2022-10-22T03:32:51.034Z,60.06
2022-10-22T03:34:52.746Z,57.10
2022-10-22T03:36:55.670Z,58.39
2022-10-22T03:38:57.272Z,57.41
2022-10-22T03:40:59.028Z,57.71
2022-10-22T03:43:00.623Z,57.39
2022-10-22T03:45:02.257Z,57.14
2022-10-22T03:47:04.144Z,57.57
2022-10-22T03:49:05.691Z,57.64
2022-10-22T03:51:07.384Z,57.00
2022-10-22T03:53:10.649Z,57.70
2022-10-22T03:55:12.211Z,58.96
2022-10-22T03:57:13.824Z,57.16
2022-10-22T03:59:15.633Z,59.01
2022-10-22T04:01:17.293Z,57.96
2022-10-22T04:03:19.013Z,57.87
2022-10-22T04:05:20.552Z,56.67
2022-10-22T04:07:22.121Z,58.87
2022-10-22T04:09:24.071Z,58.25
2022-10-22T04:11:25.619Z,56.17
2022-10-22T04:13:27.215Z,56.72
2022-10-22T04:15:29.183Z,56.75
2022-10-22T04:17:37.788Z,56.73
2022-10-22T04:19:39.652Z,58.03
2022-10-22T04:21:41.495Z,57.19
2022-10-22T04:23:48.452Z,55.25
2022-10-22T04:25:50.011Z,53.56
2022-10-22T04:27:51.591Z,54.79
2022-10-22T04:29:53.147Z,56.52
2022-10-22T04:31:54.714Z,55.69
2022-10-22T04:33:58.436Z,56.62
2022-10-22T04:35:59.999Z,56.59
2022-10-22T04:38:01.564Z,55.02
2022-10-22T04:40:04.166Z,55.00
2022-10-22T04:42:05.797Z,54.25
2022-10-22T04:44:11.111Z,55.34
2022-10-22T04:46:18.627Z,53.36
2022-10-22T04:48:20.206Z,52.09
2022-10-22T04:50:21.893Z,54.53
2022-10-22T04:52:23.450Z,53.99
2022-10-22T04:54:27.746Z,55.00
2022-10-22T04:56:33.137Z,54.24
2022-10-22T04:58:35.039Z,53.46
2022-10-22T05:00:36.649Z,55.32
2022-10-22T05:02:38.388Z,52.85
2022-10-22T05:04:39.989Z,54.46
2022-10-22T05:06:41.733Z,54.43
2022-10-22T05:08:43.981Z,53.40
2022-10-22T05:10:45.554Z,52.26
2022-10-22T05:12:47.111Z,54.94
2022-10-22T05:14:48.718Z,52.99
2022-10-22T05:16:51.353Z,53.86
2022-10-22T05:18:53.426Z,52.86
2022-10-22T05:20:55.156Z,55.76
2022-10-22T05:22:56.791Z,55.46
2022-10-22T05:24:58.363Z,55.14
2022-10-22T05:27:00.531Z,53.94
2022-10-22T05:29:02.149Z,53.01
2022-10-22T05:31:05.096Z,54.99
2022-10-22T05:33:06.699Z,55.93
2022-10-22T05:35:08.628Z,56.23
2022-10-22T05:37:10.193Z,57.89
2022-10-22T05:39:12.156Z,57.88
2022-10-22T05:41:16.453Z,58.49
2022-10-22T05:43:17.995Z,55.02
2022-10-22T05:45:19.611Z,55.88
2022-10-22T05:47:21.164Z,58.19
2022-10-22T05:49:22.717Z,58.98
2022-10-22T05:51:26.108Z,58.23
2022-10-22T05:53:27.662Z,57.96
2022-10-22T05:55:29.212Z,57.22
2022-10-22T05:57:30.796Z,59.05
2022-10-22T05:59:32.405Z,57.95
2022-10-22T06:01:35.636Z,58.13
2022-10-22T06:03:37.335Z,58.08
2022-10-22T06:05:39.063Z,57.65
2022-10-22T06:07:40.682Z,57.89
2022-10-22T06:09:42.512Z,58.26
2022-10-22T06:11:45.040Z,58.57
2022-10-22T06:13:47.226Z,56.74
2022-10-22T06:15:50.428Z,60.33
2022-10-22T06:17:52.013Z,59.36
2022-10-22T06:19:53.626Z,58.70
2022-10-22T06:21:55.498Z,57.43
2022-10-22T06:23:58.225Z,58.91
2022-10-22T06:26:00.352Z,56.03
2022-10-22T06:28:01.897Z,56.74
2022-10-22T06:30:04.016Z,56.51
2022-10-22T06:32:06.224Z,56.66
2022-10-22T06:34:11.522Z,57.94
2022-10-22T06:36:16.246Z,55.02
2022-10-22T06:38:17.797Z,56.91
2022-10-22T06:40:19.419Z,57.50
2022-10-22T06:42:20.999Z,60.40
2022-10-22T06:44:22.843Z,56.75
2022-10-22T06:46:25.751Z,56.77
2022-10-22T06:48:27.586Z,55.82
2022-10-22T06:50:29.240Z,56.26
2022-10-22T06:52:30.775Z,57.69
2022-10-22T06:54:32.583Z,58.15
2022-10-22T06:56:34.395Z,57.57
2022-10-22T06:58:36.519Z,56.52
2022-10-22T07:00:38.092Z,56.03
2022-10-22T07:02:39.924Z,55.77
2022-10-22T07:04:41.729Z,57.21
2022-10-22T07:06:43.709Z,55.05
2022-10-22T07:08:45.374Z,55.72
2022-10-22T07:10:46.960Z,56.83
2022-10-22T07:12:48.606Z,55.11
2022-10-22T07:14:50.219Z,54.03
2022-10-22T07:16:51.799Z,56.02
2022-10-22T07:18:53.447Z,55.66
2022-10-22T07:20:54.994Z,55.51
2022-10-22T07:22:56.516Z,57.33
2022-10-22T07:24:58.220Z,57.75
2022-10-22T07:26:59.864Z,55.24
2022-10-22T07:29:01.979Z,57.19
2022-10-22T07:31:03.972Z,55.43
2022-10-22T07:33:05.681Z,55.36
2022-10-22T07:35:07.587Z,57.99
2022-10-22T07:37:09.107Z,56.51
2022-10-22T07:39:10.707Z,56.29
2022-10-22T07:41:13.040Z,56.50
2022-10-22T07:43:14.592Z,57.61
2022-10-22T07:45:16.187Z,59.82
2022-10-22T07:47:17.791Z,58.52
2022-10-22T07:49:19.343Z,58.33
2022-10-22T07:51:21.292Z,61.43
2022-10-22T07:53:23.024Z,59.36
2022-10-22T07:55:24.819Z,56.39
2022-10-22T07:57:26.507Z,57.36
2022-10-22T07:59:28.137Z,56.67
2022-10-22T08:01:29.714Z,57.62
2022-10-22T08:03:32.591Z,57.90
2022-10-22T08:05:34.801Z,56.29
2022-10-22T08:07:36.381Z,57.26
2022-10-22T08:09:37.942Z,57.22
2022-10-22T08:11:39.660Z,56.81
2022-10-22T08:13:45.120Z,56.18
2022-10-22T08:15:47.289Z,56.85
2022-10-22T08:17:48.920Z,55.12
2022-10-22T08:19:50.510Z,56.80
2022-10-22T08:21:52.101Z,57.04
2022-10-22T08:23:53.733Z,57.20
2022-10-22T08:25:56.645Z,56.01
2022-10-22T08:27:58.240Z,57.14
2022-10-22T08:29:59.999Z,56.92
2022-10-22T08:32:02.919Z,55.80
2022-10-22T08:34:05.697Z,55.13
2022-10-22T08:36:08.065Z,55.24
2022-10-22T08:38:09.649Z,57.22
2022-10-22T08:40:21.590Z,55.86
2022-10-22T08:42:45.403Z,55.45
2022-10-22T08:45:09.049Z,55.43
2022-10-22T08:47:31.775Z,54.77
2022-10-22T08:49:41.349Z,55.17
2022-10-22T08:51:43.879Z,56.56
2022-10-22T08:53:53.600Z,54.98
2022-10-22T08:55:57.214Z,56.19
2022-10-22T08:58:16.281Z,56.98
2022-10-22T09:00:32.761Z,55.92
2022-10-22T09:03:05.241Z,55.01
2022-10-22T09:05:28.271Z,54.14
2022-10-22T09:07:29.810Z,54.79
2022-10-22T09:09:38.911Z,54.15
2022-10-22T09:11:43.410Z,56.00
2022-10-22T09:13:46.279Z,54.61
2022-10-22T09:16:00.506Z,53.47
2022-10-22T09:18:17.075Z,55.23
2022-10-22T09:20:32.868Z,54.28
2022-10-22T09:22:50.928Z,54.21
2022-10-22T09:24:59.789Z,53.08
2022-10-22T09:27:02.213Z,53.04
2022-10-22T09:29:04.484Z,54.69
2022-10-22T09:31:13.776Z,53.72
2022-10-22T09:33:25.947Z,53.88
2022-10-22T09:35:27.574Z,52.34
2022-10-22T09:37:30.140Z,52.22
2022-10-22T09:39:37.560Z,55.76
2022-10-22T09:41:39.197Z,52.64
2022-10-22T09:43:40.830Z,53.81
2022-10-22T09:45:43.575Z,55.36
2022-10-22T09:48:01.052Z,54.25
2022-10-22T09:50:12.178Z,53.66
2022-10-22T09:52:29.463Z,53.75
2022-10-22T09:54:33.866Z,53.85
2022-10-22T09:56:41.769Z,53.68
2022-10-22T09:58:46.050Z,54.84
2022-10-22T10:00:54.437Z,53.45
2022-10-22T10:02:58.826Z,53.52
2022-10-22T10:05:03.654Z,53.25
2022-10-22T10:07:16.320Z,54.81
2022-10-22T10:09:21.977Z,52.83
2022-10-22T10:11:37.453Z,53.63
2022-10-22T10:14:09.830Z,52.41
2022-10-22T10:16:47.793Z,51.10
2022-10-22T10:19:07.385Z,52.19
2022-10-22T10:21:20.895Z,53.61
2022-10-22T10:23:58.184Z,52.54
2022-10-22T10:26:21.881Z,51.62
2022-10-22T10:29:00.530Z,52.81
2022-10-22T10:31:20.405Z,51.31
2022-10-22T10:34:04.544Z,52.45
2022-10-22T10:36:19.315Z,51.24
2022-10-22T10:38:54.027Z,51.60
2022-10-22T10:41:24.440Z,52.31
2022-10-22T10:43:53.627Z,52.26
2022-10-22T10:46:34.902Z,53.10
2022-10-22T10:49:01.125Z,52.54
2022-10-22T10:51:14.544Z,51.54
2022-10-22T10:53:27.823Z,51.35
2022-10-22T10:55:42.087Z,50.29
2022-10-22T10:57:57.339Z,51.32
2022-10-22T11:03:43.612Z,58.12
2022-10-22T11:06:08.375Z,57.28
2022-10-22T11:08:23.796Z,56.04
2022-10-22T11:10:40.423Z,56.51
2022-10-22T11:12:46.395Z,56.29
2022-10-22T11:15:06.354Z,55.57
2022-10-22T11:17:15.949Z,54.66
2022-10-22T11:19:46.519Z,54.41
2022-10-22T11:22:13.511Z,53.60
2022-10-22T11:24:40.792Z,54.78
2022-10-22T11:26:45.117Z,54.29
2022-10-22T11:28:52.673Z,54.77
2022-10-22T11:31:09.971Z,53.23
2022-10-22T11:33:16.464Z,55.20
2022-10-22T11:35:28.822Z,51.14
2022-10-22T11:37:35.129Z,53.62
2022-10-22T11:39:57.052Z,52.94
2022-10-22T11:42:00.058Z,50.96
2022-10-22T11:44:07.719Z,51.94
2022-10-22T11:46:28.949Z,50.46
2022-10-22T11:48:37.572Z,50.40
2022-10-22T11:50:46.368Z,50.20
2022-10-22T11:53:13.728Z,50.76
2022-10-22T11:55:55.863Z,49.65
2022-10-22T11:58:00.412Z,50.17
2022-10-22T12:00:11.100Z,49.66
2022-10-22T12:02:28.003Z,49.66
2022-10-22T12:04:43.127Z,48.74
2022-10-22T12:06:59.618Z,47.93
2022-10-22T12:09:06.114Z,48.50
2022-10-22T12:11:10.583Z,48.08
2022-10-22T12:13:18.136Z,48.84
2022-10-22T12:15:29.657Z,49.53
2022-10-22T12:17:31.502Z,48.75
2022-10-22T12:19:40.819Z,50.00
2022-10-22T12:21:48.595Z,49.19
2022-10-22T12:23:51.334Z,47.23
2022-10-22T12:25:52.966Z,47.93
2022-10-22T12:27:59.397Z,46.66
2022-10-22T12:30:02.369Z,48.19
2022-10-22T12:32:04.759Z,50.21
2022-10-22T12:34:06.672Z,49.30
2022-10-22T12:36:16.113Z,48.13
2022-10-22T12:38:20.441Z,48.54
2022-10-22T12:40:25.957Z,48.72
2022-10-22T12:42:27.618Z,50.08
2022-10-22T12:44:29.287Z,49.04
2022-10-22T12:46:34.298Z,48.60
2022-10-22T12:48:40.401Z,49.77
2022-10-22T12:50:45.363Z,49.68
2022-10-22T12:52:48.577Z,48.46
2022-10-22T12:54:52.646Z,48.73
2022-10-22T12:56:56.204Z,47.55
2022-10-22T12:59:03.449Z,46.27
2022-10-22T13:01:05.615Z,46.89
2022-10-22T13:03:07.808Z,47.13
2022-10-22T13:05:23.837Z,46.82
2022-10-22T13:07:25.924Z,46.63
2022-10-22T13:09:57.884Z,45.86
2022-10-22T13:12:07.441Z,47.30
2022-10-22T13:14:26.297Z,45.95
2022-10-22T13:16:30.206Z,45.12
2022-10-22T13:18:33.415Z,44.99
2022-10-22T13:20:37.495Z,44.70
2022-10-22T13:22:41.575Z,44.33
2022-10-22T13:24:50.295Z,43.74
2022-10-22T13:26:54.351Z,44.52
2022-10-22T13:28:57.637Z,44.44
2022-10-22T13:31:02.041Z,46.08
2022-10-22T13:33:22.879Z,45.93
2022-10-22T13:35:32.181Z,46.07
2022-10-22T13:37:35.673Z,45.49
2022-10-22T13:39:37.284Z,45.27
2022-10-22T13:43:46.279Z,45.93
2022-10-22T13:48:08.429Z,44.87
2022-10-22T13:50:15.518Z,44.90
2022-10-22T13:52:27.691Z,44.20
2022-10-22T13:54:29.388Z,44.31
2022-10-22T13:56:31.986Z,44.44
2022-10-22T13:58:33.636Z,43.96
2022-10-22T14:00:37.736Z,44.99
2022-10-22T14:02:40.668Z,43.70
2022-10-22T14:04:42.771Z,45.07
2022-10-22T14:06:44.442Z,44.49
2022-10-22T14:08:48.689Z,44.39
2022-10-22T14:10:50.351Z,43.44
2022-10-22T14:12:53.650Z,43.35
2022-10-22T14:17:02.032Z,43.31
2022-10-22T14:19:07.028Z,43.48
2022-10-22T14:21:08.844Z,43.60
2022-10-22T14:23:18.986Z,43.08
2022-10-22T14:25:26.058Z,42.56
2022-10-22T14:27:27.755Z,44.54
2022-10-22T14:29:29.399Z,44.28
2022-10-22T14:31:31.743Z,43.59
2022-10-22T14:33:34.104Z,44.63
2022-10-22T14:35:35.758Z,44.55
2022-10-22T14:37:37.364Z,45.92
2022-10-22T14:39:41.196Z,45.12
2022-10-22T14:41:42.973Z,45.65
2022-10-22T14:43:44.594Z,44.63
2022-10-22T14:45:46.280Z,45.16
2022-10-22T14:47:49.228Z,44.79
2022-10-22T14:49:50.873Z,44.92
2022-10-22T14:51:52.514Z,44.72
2022-10-22T14:53:54.125Z,44.33
2022-10-22T14:55:59.520Z,45.53
2022-10-22T14:58:01.386Z,44.60
2022-10-22T15:00:04.536Z,44.43
2022-10-22T15:02:06.523Z,43.57
2022-10-22T15:04:08.618Z,44.29
2022-10-22T15:06:10.847Z,44.23
2022-10-22T15:08:14.693Z,44.10
2022-10-22T15:10:16.419Z,45.38
2022-10-22T15:12:18.028Z,43.91
2022-10-22T15:14:19.829Z,44.39
2022-10-22T15:16:21.855Z,44.76
2022-10-22T15:18:24.374Z,44.50
2022-10-22T15:20:27.422Z,44.60
2022-10-22T15:22:29.452Z,45.25
2022-10-22T15:24:31.246Z,44.27
2022-10-22T15:26:33.094Z,43.84
2022-10-22T15:28:34.744Z,44.05
2022-10-22T15:30:36.488Z,44.48
2022-10-22T15:32:38.336Z,43.84
2022-10-22T15:34:40.620Z,43.53
2022-10-22T15:36:42.267Z,42.69
2022-10-22T15:38:43.954Z,43.96
2022-10-22T15:40:45.928Z,43.50
2022-10-22T15:42:47.564Z,43.94
2022-10-22T15:44:49.506Z,43.19
2022-10-22T15:46:52.559Z,43.39
2022-10-22T15:48:54.314Z,44.07
2022-10-22T15:50:55.934Z,43.74
2022-10-22T15:52:57.581Z,43.42
2022-10-22T15:54:59.281Z,42.55
2022-10-22T15:57:08.717Z,43.06
2022-10-22T15:59:12.145Z,42.34
2022-10-22T16:01:14.775Z,41.90
2022-10-22T16:03:16.533Z,41.94
2022-10-22T16:05:18.261Z,41.47
2022-10-22T16:07:23.885Z,41.81
2022-10-22T16:09:27.710Z,41.07
2022-10-22T16:11:29.936Z,41.60
2022-10-22T16:13:31.736Z,41.87
2022-10-22T16:15:34.981Z,41.28
2022-10-22T16:17:36.603Z,40.70
2022-10-22T16:19:38.297Z,41.22
2022-10-22T16:21:41.009Z,41.42
2022-10-22T16:23:43.224Z,41.03
2022-10-22T16:25:46.117Z,41.47
2022-10-22T16:27:51.316Z,41.06
2022-10-22T16:29:52.921Z,40.48
2022-10-22T16:31:54.670Z,41.41
2022-10-22T16:33:57.332Z,44.25
2022-10-22T16:35:59.699Z,44.24
2022-10-22T16:38:01.386Z,44.04
2022-10-22T16:40:05.937Z,43.21
2022-10-22T16:42:09.919Z,41.38
2022-10-22T16:44:13.335Z,41.63
2022-10-22T16:46:20.711Z,43.34
2022-10-22T16:48:22.324Z,43.39
2022-10-22T16:50:24.103Z,42.80
2022-10-22T16:52:25.803Z,42.95
2022-10-22T16:54:27.463Z,42.18
2022-10-22T16:56:29.200Z,42.94
2022-10-22T16:58:30.916Z,41.34
2022-10-22T17:00:33.488Z,41.49
2022-10-22T17:02:37.435Z,41.91
2022-10-22T17:04:39.086Z,42.53
2022-10-22T17:06:40.751Z,42.65
2022-10-22T17:08:42.976Z,42.53
2022-10-22T17:10:44.689Z,42.37
2022-10-22T17:12:47.092Z,43.37
2022-10-22T17:14:48.727Z,43.13
2022-10-22T17:16:53.767Z,42.26
2022-10-22T17:18:55.851Z,41.90
2022-10-22T17:20:58.699Z,42.00
2022-10-22T17:23:00.438Z,42.44
2022-10-22T17:25:24.112Z,42.38
2022-10-22T17:27:25.871Z,43.25
2022-10-22T17:29:27.540Z,42.46
2022-10-22T17:31:37.429Z,42.88
2022-10-22T17:33:39.115Z,42.63
2022-10-22T17:35:41.213Z,42.00
2022-10-22T17:37:43.660Z,42.23
2022-10-22T17:39:45.456Z,42.10
2022-10-22T17:41:47.120Z,43.55
2022-10-22T17:43:49.382Z,43.37
2022-10-22T17:45:51.097Z,44.46
2022-10-22T17:47:52.758Z,44.91
2022-10-22T17:49:54.354Z,43.50
2022-10-22T17:51:56.777Z,42.17
2022-10-22T17:53:58.745Z,42.48
2022-10-22T17:56:01.782Z,42.71
2022-10-22T17:58:03.549Z,42.28
2022-10-22T18:00:06.227Z,42.92
2022-10-22T18:02:14.199Z,42.26
2022-10-22T18:04:18.499Z,42.19
2022-10-22T18:06:20.824Z,43.17
2022-10-22T18:08:25.661Z,42.94
2022-10-22T18:10:29.287Z,43.78
2022-10-22T18:12:30.888Z,44.08
2022-10-22T18:14:32.519Z,43.90
2022-10-22T18:16:34.440Z,44.75
2022-10-22T18:18:36.407Z,43.84
2022-10-22T18:20:38.176Z,43.81
2022-10-22T18:22:41.402Z,42.79
2022-10-22T18:24:43.003Z,43.59
2022-10-22T18:26:44.921Z,43.05
2022-10-22T18:28:48.706Z,44.34
2022-10-22T18:30:50.417Z,44.35
2022-10-22T18:32:52.190Z,44.03
2022-10-22T18:34:53.776Z,42.97
2022-10-22T18:36:55.433Z,42.70
2022-10-22T18:38:59.501Z,43.41
2022-10-22T18:41:01.617Z,43.28
2022-10-22T18:43:03.858Z,43.06
2022-10-22T18:45:06.115Z,43.06
2022-10-22T18:47:08.753Z,42.92
2022-10-22T18:49:18.273Z,43.41
2022-10-22T18:51:19.967Z,43.84
2022-10-22T18:53:21.585Z,43.24
2022-10-22T18:55:23.189Z,43.08
2022-10-22T18:57:25.485Z,42.59
2022-10-22T18:59:27.438Z,42.31
2022-10-22T19:01:29.515Z,42.77
2022-10-22T19:03:31.201Z,42.78
2022-10-22T19:05:32.830Z,42.99
2022-10-22T19:07:36.522Z,43.51
2022-10-22T19:09:39.787Z,42.71
2022-10-22T19:11:42.072Z,44.12
2022-10-22T19:13:44.001Z,43.26
2022-10-22T19:15:45.692Z,43.52
2022-10-22T19:17:47.306Z,43.19
2022-10-22T19:19:48.952Z,43.40
2022-10-22T19:21:51.229Z,43.92
2022-10-22T19:23:58.686Z,45.13
2022-10-22T19:26:12.861Z,44.88
2022-10-22T19:28:14.524Z,44.38
2022-10-22T19:30:17.404Z,44.13
2022-10-22T19:32:20.163Z,44.91
2022-10-22T19:34:22.158Z,43.68
2022-10-22T19:36:25.367Z,43.61
2022-10-22T19:38:29.783Z,42.80
2022-10-22T19:40:31.457Z,42.70
2022-10-22T19:42:33.485Z,42.80
2022-10-22T19:44:35.171Z,44.54
2022-10-22T19:46:36.818Z,43.77
2022-10-22T19:48:38.703Z,43.45
2022-10-22T19:50:40.597Z,43.61
2022-10-22T19:52:42.444Z,43.02
2022-10-22T19:54:45.729Z,44.30
2022-10-22T19:56:47.944Z,43.28
2022-10-22T19:58:49.712Z,42.54
2022-10-22T20:00:51.473Z,42.97
2022-10-22T20:02:53.122Z,42.86
2022-10-22T20:04:54.763Z,42.50
2022-10-22T20:06:56.448Z,43.04
2022-10-22T20:08:58.269Z,43.10
2022-10-22T20:11:00.024Z,42.53
2022-10-22T20:13:01.916Z,41.56
2022-10-22T20:15:03.700Z,42.26
2022-10-22T20:17:05.326Z,41.67
2022-10-22T20:19:08.717Z,42.60
2022-10-22T20:21:13.939Z,42.29
2022-10-22T20:23:15.780Z,43.13
2022-10-22T20:25:17.524Z,43.31
2022-10-22T20:27:19.128Z,41.91
2022-10-22T20:29:20.809Z,41.84
2022-10-22T20:31:24.222Z,41.91
2022-10-22T20:33:25.876Z,41.83
2022-10-22T20:35:27.522Z,41.86
2022-10-22T20:37:29.229Z,43.98
2022-10-22T20:39:30.948Z,43.24
2022-10-22T20:41:34.193Z,43.47
2022-10-22T20:43:36.045Z,44.55
2022-10-22T20:45:37.739Z,46.96
2022-10-22T20:47:51.437Z,48.02
2022-10-22T20:50:00.135Z,47.04
2022-10-22T20:52:02.148Z,43.98
2022-10-22T20:54:05.189Z,43.25
2022-10-22T20:56:07.036Z,42.96
2022-10-22T20:58:08.851Z,43.11
2022-10-22T21:00:11.058Z,43.01
2022-10-22T21:02:12.732Z,43.26
2022-10-22T21:04:15.134Z,44.47
2022-10-22T21:06:17.688Z,43.28
2022-10-22T21:08:19.345Z,44.96
2022-10-22T21:10:20.977Z,45.89
2022-10-22T21:12:22.613Z,45.98
2022-10-22T21:14:24.286Z,45.20
2022-10-22T21:16:26.017Z,45.39
2022-10-22T21:18:27.661Z,43.07
2022-10-22T21:20:29.312Z,42.51
2022-10-22T21:22:31.086Z,43.55
2022-10-22T21:24:32.689Z,43.64
2022-10-22T21:26:41.201Z,44.90
2022-10-22T21:28:42.898Z,45.79
2022-10-22T21:30:45.621Z,46.77
2022-10-22T21:32:47.282Z,45.29
2022-10-22T21:34:48.930Z,44.51
2022-10-22T21:36:50.588Z,43.84
2022-10-22T21:38:52.791Z,42.94
2022-10-22T21:40:54.519Z,45.27
2022-10-22T21:42:56.167Z,47.17
2022-10-22T21:44:57.943Z,47.96
2022-10-22T21:46:59.587Z,49.32
2022-10-22T21:49:03.466Z,48.47
2022-10-22T21:51:14.369Z,51.27
2022-10-22T21:53:16.003Z,51.03
2022-10-22T21:55:17.909Z,49.75
2022-10-22T21:57:19.540Z,49.40
2022-10-22T21:59:21.181Z,49.31
2022-10-22T22:01:23.205Z,49.93
2022-10-22T22:03:25.111Z,50.51
2022-10-22T22:05:27.668Z,50.84
2022-10-22T22:07:29.299Z,52.76
2022-10-22T22:09:31.083Z,52.89
2022-10-22T22:11:33.695Z,50.44
2022-10-22T22:13:35.777Z,47.64
2022-10-22T22:15:37.510Z,47.24
2022-10-22T22:17:39.140Z,48.04
2022-10-22T22:19:40.883Z,49.38
2022-10-22T22:21:42.801Z,49.34
2022-10-22T22:23:47.077Z,49.61
2022-10-22T22:25:49.223Z,50.26
2022-10-22T22:27:50.901Z,49.33
2022-10-22T22:29:54.243Z,48.49
2022-10-22T22:31:56.355Z,49.07
2022-10-22T22:34:00.209Z,50.77
2022-10-22T22:36:01.809Z,50.77
2022-10-22T22:38:03.834Z,50.45
2022-10-22T22:40:06.044Z,46.43
2022-10-22T22:42:07.653Z,45.88
2022-10-22T22:44:09.538Z,47.58
2022-10-22T22:46:12.609Z,48.30
2022-10-22T22:48:14.285Z,48.17
2022-10-22T22:50:16.000Z,49.19
2022-10-22T22:52:17.697Z,50.03
2022-10-22T22:54:19.390Z,50.00
2022-10-22T22:56:23.798Z,50.00
2022-10-22T22:58:25.397Z,50.77
2022-10-22T23:00:27.100Z,51.22
2022-10-22T23:02:28.708Z,51.52
2022-10-22T23:04:30.517Z,51.01
2022-10-22T23:06:36.677Z,50.63
2022-10-22T23:08:38.632Z,50.95
2022-10-22T23:10:40.287Z,51.24
2022-10-22T23:12:42.377Z,51.69
2022-10-22T23:14:44.226Z,53.28
2022-10-22T23:16:48.670Z,52.36
2022-10-22T23:18:50.853Z,51.73
2022-10-22T23:20:53.107Z,51.04
2022-10-22T23:22:54.753Z,52.73
2022-10-22T23:24:56.356Z,53.34
2022-10-22T23:27:01.684Z,52.57
2022-10-22T23:29:09.088Z,51.49
2022-10-22T23:31:13.630Z,51.41
2022-10-22T23:33:16.428Z,51.83
2022-10-22T23:35:18.148Z,51.58
2022-10-22T23:37:19.818Z,51.32
2022-10-22T23:39:24.988Z,50.21
2022-10-22T23:41:26.583Z,50.13
2022-10-22T23:43:29.699Z,50.27
2022-10-22T23:45:34.431Z,50.84
2022-10-22T23:47:36.589Z,51.63
2022-10-22T23:49:38.249Z,51.91
2022-10-22T23:51:42.817Z,49.74
2022-10-22T23:53:45.315Z,49.97
2022-10-22T23:55:47.046Z,52.59
2022-10-22T23:57:48.735Z,52.05
2022-10-22T23:59:50.661Z,52.72
